createdAt,value
2022-11-20T00:01:31.691Z,5.80
2022-11-20T00:03:53.887Z,6.33
2022-11-20T00:06:15.935Z,5.37
2022-11-20T00:08:37.532Z,5.40
2022-11-20T00:10:58.468Z,6.10
2022-11-20T00:13:21.218Z,6.20
2022-11-20T00:15:42.550Z,6.20
2022-11-20T00:18:03.955Z,6.50
2022-11-20T00:20:25.316Z,6.67
2022-11-20T00:22:46.590Z,7.07
2022-11-20T00:25:08.049Z,6.47
2022-11-20T00:27:29.000Z,6.40
2022-11-20T00:29:51.643Z,6.50
2022-11-20T00:32:12.920Z,6.20
2022-11-20T00:34:34.135Z,6.20
2022-11-20T00:36:55.418Z,6.67
2022-11-20T00:39:16.673Z,6.03
2022-11-20T00:41:38.001Z,6.47
2022-11-20T00:43:59.418Z,6.07
2022-11-20T00:46:23.271Z,5.80
2022-11-20T00:48:44.479Z,6.17
2022-11-20T00:51:05.985Z,6.03
2022-11-20T00:53:27.793Z,5.90
2022-11-20T00:55:54.721Z,6.30
2022-11-20T00:58:15.674Z,6.33
2022-11-20T01:00:36.937Z,5.90
2022-11-20T01:02:59.721Z,6.20
2022-11-20T01:05:20.894Z,6.03
2022-11-20T01:07:42.227Z,5.77
2022-11-20T01:10:03.560Z,6.07
2022-11-20T01:12:24.854Z,5.77
2022-11-20T01:14:46.162Z,5.10
2022-11-20T01:17:07.389Z,5.23
2022-11-20T01:19:30.162Z,5.37
2022-11-20T01:21:52.702Z,5.47
2022-11-20T01:24:15.354Z,5.50
2022-11-20T01:26:37.446Z,5.07
2022-11-20T01:28:59.121Z,5.13
2022-11-20T01:31:21.389Z,5.40
2022-11-20T01:33:43.275Z,5.40
2022-11-20T01:36:07.547Z,5.00
2022-11-20T01:38:28.618Z,5.30
2022-11-20T01:40:55.679Z,5.50
2022-11-20T01:43:24.100Z,5.17
2022-11-20T01:46:05.413Z,6.10
2022-11-20T01:48:28.684Z,5.57
2022-11-20T01:50:50.095Z,5.33
2022-11-20T01:53:14.651Z,5.80
2022-11-20T01:55:38.508Z,6.30
2022-11-20T01:58:00.163Z,7.37
2022-11-20T02:00:21.945Z,5.10
2022-11-20T02:02:44.538Z,5.17
2022-11-20T02:05:10.238Z,5.20
2022-11-20T02:07:32.132Z,4.80
2022-11-20T02:09:58.570Z,5.73
2022-11-20T02:12:34.359Z,4.70
2022-11-20T02:14:55.465Z,5.47
2022-11-20T02:17:16.892Z,5.93
2022-11-20T02:19:38.066Z,4.87
2022-11-20T02:22:04.168Z,5.70
2022-11-20T02:24:26.505Z,5.70
2022-11-20T02:26:51.616Z,5.63
2022-11-20T02:29:12.621Z,5.53
2022-11-20T02:31:42.065Z,5.30
2022-11-20T02:34:03.332Z,5.50
2022-11-20T02:36:25.905Z,6.03
2022-11-20T02:38:47.226Z,6.27
2022-11-20T02:41:09.654Z,5.13
2022-11-20T02:43:31.107Z,5.53
2022-11-20T02:45:52.376Z,5.83
2022-11-20T02:48:13.667Z,6.13
2022-11-20T02:50:35.221Z,5.67
2022-11-20T02:52:56.199Z,6.23
2022-11-20T02:55:17.584Z,5.60
2022-11-20T02:57:40.190Z,6.20
2022-11-20T03:00:01.358Z,5.83
2022-11-20T03:02:22.611Z,6.50
2022-11-20T03:04:43.652Z,6.63
2022-11-20T03:07:05.119Z,5.97
2022-11-20T03:09:26.386Z,5.97
2022-11-20T03:11:47.277Z,6.30
2022-11-20T03:14:09.838Z,6.33
2022-11-20T03:16:32.659Z,6.00
2022-11-20T03:18:54.151Z,6.00
2022-11-20T03:21:15.575Z,6.03
2022-11-20T03:23:37.053Z,6.13
2022-11-20T03:25:58.465Z,5.80
2022-11-20T03:28:19.710Z,5.83
2022-11-20T03:30:42.549Z,5.63
2022-11-20T03:33:03.903Z,6.13
2022-11-20T03:35:25.113Z,5.40
2022-11-20T03:37:46.872Z,5.33
2022-11-20T03:40:08.854Z,5.73
2022-11-20T03:42:48.253Z,5.73
2022-11-20T03:45:09.613Z,5.27
2022-11-20T03:47:32.020Z,5.20
2022-11-20T03:49:53.797Z,5.40
2022-11-20T03:52:15.202Z,5.67
2022-11-20T03:54:36.429Z,5.10
2022-11-20T03:56:57.799Z,4.90
2022-11-20T03:59:19.495Z,5.17
2022-11-20T04:01:44.343Z,5.10
2022-11-20T04:04:10.694Z,4.67
2022-11-20T04:06:32.554Z,4.90
2022-11-20T04:08:55.753Z,4.80
2022-11-20T04:11:18.040Z,5.23
2022-11-20T04:13:39.628Z,4.80
2022-11-20T04:16:00.672Z,4.60
2022-11-20T04:18:22.024Z,5.20
2022-11-20T04:20:44.736Z,5.00
2022-11-20T04:23:05.890Z,4.63
2022-11-20T04:25:27.101Z,4.60
2022-11-20T04:27:48.203Z,5.10
2022-11-20T04:30:09.923Z,4.30
2022-11-20T04:32:31.237Z,4.43
2022-11-20T04:34:52.345Z,4.43
2022-11-20T04:37:14.788Z,3.90
2022-11-20T04:39:35.986Z,3.80
2022-11-20T04:42:11.123Z,3.43
2022-11-20T04:44:32.018Z,4.23
2022-11-20T04:46:53.093Z,3.77
2022-11-20T04:49:14.366Z,3.70
2022-11-20T04:51:35.932Z,3.47
2022-11-20T04:53:58.331Z,3.83
2022-11-20T04:56:19.767Z,3.60
2022-11-20T04:58:41.189Z,4.03
2022-11-20T05:01:03.062Z,4.00
2022-11-20T05:03:24.118Z,3.53
2022-11-20T05:05:45.509Z,3.43
2022-11-20T05:08:06.791Z,3.30
2022-11-20T05:10:29.645Z,2.80
2022-11-20T05:12:50.610Z,3.13
2022-11-20T05:15:11.925Z,3.03
2022-11-20T05:17:33.201Z,2.83
2022-11-20T05:19:54.482Z,3.00
2022-11-20T05:22:15.739Z,3.20
2022-11-20T05:24:36.980Z,3.10
2022-11-20T05:26:59.543Z,3.03
2022-11-20T05:29:20.846Z,2.83
2022-11-20T05:31:42.558Z,2.60
2022-11-20T05:34:03.680Z,2.70
2022-11-20T05:36:25.215Z,2.70
2022-11-20T05:38:49.064Z,2.83
2022-11-20T05:41:12.882Z,2.73
2022-11-20T05:43:36.674Z,2.60
2022-11-20T05:45:57.690Z,2.63
2022-11-20T05:48:18.847Z,2.80
2022-11-20T05:50:40.075Z,2.90
2022-11-20T05:53:01.652Z,2.80
2022-11-20T05:55:22.616Z,2.60
2022-11-20T05:57:43.676Z,2.63
2022-11-20T06:00:07.024Z,3.00
2022-11-20T06:02:28.492Z,2.97
2022-11-20T06:04:49.757Z,2.50
2022-11-20T06:07:11.401Z,2.70
2022-11-20T06:09:32.647Z,2.70
2022-11-20T06:11:53.933Z,2.70
2022-11-20T06:14:15.145Z,3.27
2022-11-20T06:16:37.748Z,3.07
2022-11-20T06:18:59.062Z,2.53
2022-11-20T06:21:21.147Z,3.00
2022-11-20T06:23:42.853Z,2.53
2022-11-20T06:26:04.981Z,2.70
2022-11-20T06:28:26.298Z,2.70
2022-11-20T06:30:47.741Z,2.47
2022-11-20T06:33:10.093Z,2.50
2022-11-20T06:35:31.504Z,2.50
2022-11-20T06:37:52.982Z,2.33
2022-11-20T06:40:14.375Z,2.50
2022-11-20T06:42:35.594Z,2.50
2022-11-20T06:44:56.820Z,2.93
2022-11-20T06:47:18.096Z,2.80
2022-11-20T06:49:40.945Z,2.20
2022-11-20T06:52:01.841Z,2.73
2022-11-20T06:54:23.158Z,2.70
2022-11-20T06:56:44.593Z,2.90
2022-11-20T06:59:06.368Z,2.30
2022-11-20T07:01:27.717Z,22.53
2022-11-20T07:03:54.268Z,3.60
2022-11-20T07:06:17.568Z,2.90
2022-11-20T07:08:38.999Z,2.70
2022-11-20T07:11:00.886Z,2.47
2022-11-20T07:13:22.078Z,2.80
2022-11-20T07:15:43.397Z,2.70
2022-11-20T07:18:04.775Z,2.60
2022-11-20T07:20:25.683Z,2.87
2022-11-20T07:22:48.551Z,2.90
2022-11-20T07:25:10.273Z,2.93
2022-11-20T07:27:31.717Z,2.67
2022-11-20T07:29:52.502Z,3.03
2022-11-20T07:32:13.825Z,3.00
2022-11-20T07:34:35.156Z,2.80
2022-11-20T07:36:56.382Z,3.87
2022-11-20T07:39:19.329Z,2.63
2022-11-20T07:41:40.642Z,3.30
2022-11-20T07:44:01.984Z,3.27
2022-11-20T07:46:23.286Z,2.50
2022-11-20T07:48:44.599Z,2.67
2022-11-20T07:51:05.832Z,2.73
2022-11-20T07:53:27.230Z,2.80
2022-11-20T07:55:49.896Z,2.50
2022-11-20T07:58:10.874Z,2.50
2022-11-20T08:00:32.160Z,2.40
2022-11-20T08:02:53.467Z,2.30
2022-11-20T08:05:14.562Z,2.67
2022-11-20T08:07:39.792Z,2.30
2022-11-20T08:10:00.949Z,2.40
2022-11-20T08:12:49.538Z,2.77
2022-11-20T08:15:13.251Z,2.60
2022-11-20T08:17:34.707Z,2.53
2022-11-20T08:19:55.952Z,2.77
2022-11-20T08:22:18.590Z,2.33
2022-11-20T08:24:40.074Z,2.43
2022-11-20T08:27:01.433Z,2.40
2022-11-20T08:29:24.331Z,2.40
2022-11-20T08:31:45.828Z,2.20
2022-11-20T08:34:09.511Z,2.60
2022-11-20T08:36:34.690Z,2.90
2022-11-20T08:38:57.170Z,2.60
2022-11-20T08:41:27.904Z,2.80
2022-11-20T08:43:49.103Z,4.87
2022-11-20T08:46:11.545Z,3.83
2022-11-20T08:48:32.438Z,2.93
2022-11-20T08:50:53.676Z,2.40
2022-11-20T08:53:14.936Z,2.40
2022-11-20T08:55:37.811Z,2.47
2022-11-20T08:57:59.146Z,2.57
2022-11-20T09:00:20.547Z,2.40
2022-11-20T09:02:43.026Z,2.47
2022-11-20T09:05:04.689Z,2.60
2022-11-20T09:07:25.937Z,2.73
2022-11-20T09:10:03.704Z,2.90
2022-11-20T09:12:27.900Z,2.73
2022-11-20T09:14:54.739Z,2.50
2022-11-20T09:17:16.118Z,2.17
2022-11-20T09:19:38.772Z,2.40
2022-11-20T09:22:01.037Z,2.50
2022-11-20T09:24:22.675Z,2.27
2022-11-20T09:26:43.866Z,2.70
2022-11-20T09:29:05.040Z,2.20
2022-11-20T09:31:27.184Z,2.10
2022-11-20T09:33:48.443Z,3.00
2022-11-20T09:36:11.331Z,2.93
2022-11-20T09:38:32.492Z,2.57
2022-11-20T09:40:57.544Z,2.40
2022-11-20T09:43:20.682Z,3.10
2022-11-20T09:45:50.484Z,4.13
2022-11-20T09:48:19.173Z,3.33
2022-11-20T09:50:42.754Z,4.30
2022-11-20T09:53:13.178Z,4.27
2022-11-20T09:55:36.115Z,5.53
2022-11-20T09:57:58.916Z,6.73
2022-11-20T10:00:22.159Z,4.83
2022-11-20T10:02:45.144Z,4.60
2022-11-20T10:05:08.309Z,3.27
2022-11-20T10:07:33.192Z,3.33
2022-11-20T10:09:56.947Z,3.13
2022-11-20T10:12:22.680Z,3.47
2022-11-20T10:14:54.243Z,2.60
2022-11-20T10:17:21.887Z,3.23
2022-11-20T10:19:49.512Z,3.07
2022-11-20T10:22:15.320Z,2.93
2022-11-20T10:24:48.747Z,2.80
2022-11-20T10:27:17.889Z,1.97
2022-11-20T10:29:40.226Z,2.10
2022-11-20T10:32:03.801Z,2.47
2022-11-20T10:34:27.846Z,2.00
2022-11-20T10:36:51.568Z,3.40
2022-11-20T10:39:18.878Z,2.50
2022-11-20T10:41:42.617Z,2.50
2022-11-20T10:44:06.967Z,2.60
2022-11-20T10:46:28.054Z,2.50
2022-11-20T10:48:49.379Z,2.50
2022-11-20T10:51:14.727Z,2.20
2022-11-20T10:53:44.650Z,3.17
2022-11-20T10:56:07.962Z,2.40
2022-11-20T10:58:35.923Z,3.10
2022-11-20T11:01:07.107Z,3.43
2022-11-20T11:03:29.637Z,3.20
2022-11-20T11:05:52.435Z,3.80
2022-11-20T11:08:14.674Z,3.67
2022-11-20T11:10:39.139Z,2.47
2022-11-20T11:13:00.075Z,2.50
2022-11-20T11:15:28.572Z,2.20
2022-11-20T11:17:50.939Z,2.77
2022-11-20T11:20:18.054Z,4.40
2022-11-20T11:22:46.494Z,4.10
2022-11-20T11:25:11.540Z,4.00
2022-11-20T11:27:32.820Z,5.43
2022-11-20T11:30:03.685Z,7.17
2022-11-20T11:32:25.054Z,2.90
2022-11-20T11:35:00.549Z,3.70
2022-11-20T11:37:22.827Z,3.30
2022-11-20T11:39:44.210Z,3.17
2022-11-20T11:42:05.539Z,3.63
2022-11-20T11:44:47.157Z,3.23
2022-11-20T11:47:11.948Z,2.77
2022-11-20T11:49:33.354Z,2.70
2022-11-20T11:52:14.211Z,2.30
2022-11-20T11:54:40.438Z,2.60
2022-11-20T11:57:03.614Z,2.40
2022-11-20T11:59:27.324Z,2.60
2022-11-20T12:01:52.968Z,2.67
2022-11-20T12:04:19.364Z,3.30
2022-11-20T12:06:42.593Z,2.60
2022-11-20T12:09:05.254Z,2.60
2022-11-20T12:11:35.016Z,3.40
2022-11-20T12:13:58.003Z,2.80
2022-11-20T12:16:20.749Z,3.70
2022-11-20T12:18:42.506Z,2.50
2022-11-20T12:21:09.739Z,3.77
2022-11-20T12:23:36.931Z,1.87
2022-11-20T12:26:00.687Z,1.90
2022-11-20T12:28:43.125Z,1.70
2022-11-20T12:31:16.134Z,2.03
2022-11-20T12:33:48.178Z,1.90
2022-11-20T12:36:15.056Z,1.67
2022-11-20T12:38:44.643Z,1.87
2022-11-20T12:41:08.160Z,1.90
2022-11-20T12:43:47.344Z,2.10
2022-11-20T12:46:11.936Z,3.10
2022-11-20T12:48:46.221Z,2.80
2022-11-20T12:51:16.128Z,2.70
2022-11-20T12:53:43.026Z,3.10
2022-11-20T12:56:11.479Z,2.50
2022-11-20T12:58:37.316Z,2.70
2022-11-20T13:01:00.628Z,2.40
2022-11-20T13:03:39.591Z,2.30
2022-11-20T13:06:06.114Z,2.27
2022-11-20T13:08:29.071Z,2.57
2022-11-20T13:10:52.963Z,3.13
2022-11-20T13:13:16.994Z,2.17
2022-11-20T13:15:42.212Z,2.83
2022-11-20T13:18:04.698Z,2.00
2022-11-20T13:20:26.128Z,2.00
2022-11-20T13:22:49.383Z,2.30
2022-11-20T13:25:16.184Z,1.67
2022-11-20T13:27:37.868Z,2.00
2022-11-20T13:30:03.994Z,2.00
2022-11-20T13:32:25.056Z,2.70
2022-11-20T13:35:04.296Z,1.90
2022-11-20T13:37:33.092Z,1.40
2022-11-20T13:40:06.586Z,2.10
2022-11-20T13:42:29.650Z,1.70
2022-11-20T13:44:53.471Z,2.93
2022-11-20T13:47:21.111Z,2.20
2022-11-20T13:49:45.434Z,2.07
2022-11-20T13:52:21.040Z,2.53
2022-11-20T13:55:03.026Z,3.20
2022-11-20T13:57:45.008Z,1.67
2022-11-20T14:00:12.594Z,2.40
2022-11-20T14:02:33.562Z,1.83
2022-11-20T14:04:55.831Z,1.67
2022-11-20T14:07:17.801Z,2.10
2022-11-20T14:09:39.145Z,2.20
2022-11-20T14:12:00.850Z,2.50
2022-11-20T14:14:23.105Z,2.30
2022-11-20T14:16:46.202Z,2.30
2022-11-20T14:19:28.850Z,2.30
2022-11-20T14:21:50.101Z,2.10
2022-11-20T14:24:12.711Z,2.07
2022-11-20T14:26:34.172Z,2.10
2022-11-20T14:28:55.627Z,2.03
2022-11-20T14:31:20.793Z,2.40
2022-11-20T14:33:43.434Z,2.00
2022-11-20T14:36:04.943Z,1.93
2022-11-20T14:38:27.121Z,1.90
2022-11-20T14:40:48.045Z,1.70
2022-11-20T14:43:18.726Z,2.27
2022-11-20T14:45:40.310Z,2.20
2022-11-20T14:48:01.663Z,2.23
2022-11-20T14:50:25.066Z,2.27
2022-11-20T14:52:52.065Z,2.00
2022-11-20T14:55:15.792Z,2.20
2022-11-20T14:57:37.971Z,2.30
2022-11-20T15:00:10.351Z,2.60
2022-11-20T15:02:32.207Z,2.73
2022-11-20T15:05:00.247Z,2.63
2022-11-20T15:07:29.773Z,2.33
2022-11-20T15:10:00.890Z,2.20
2022-11-20T15:12:21.710Z,2.40
2022-11-20T15:14:42.959Z,2.40
2022-11-20T15:17:04.090Z,2.20
2022-11-20T15:19:26.226Z,2.27
2022-11-20T15:21:47.391Z,2.13
2022-11-20T15:24:11.886Z,1.97
2022-11-20T15:26:33.120Z,1.90
2022-11-20T15:28:54.637Z,3.43
2022-11-20T15:31:16.746Z,3.40
2022-11-20T15:33:37.994Z,4.53
2022-11-20T15:35:59.271Z,3.40
2022-11-20T15:38:20.450Z,3.50
2022-11-20T15:40:43.101Z,2.50
2022-11-20T15:43:13.238Z,2.93
2022-11-20T15:45:40.315Z,3.00
2022-11-20T15:48:01.754Z,2.93
2022-11-20T15:50:23.923Z,2.60
2022-11-20T15:52:44.839Z,2.90
2022-11-20T15:55:09.860Z,3.17
2022-11-20T15:57:32.597Z,2.97
2022-11-20T15:59:53.846Z,3.40
2022-11-20T16:02:19.281Z,2.90
2022-11-20T16:04:40.899Z,3.80
2022-11-20T16:07:01.882Z,4.50
2022-11-20T16:09:22.992Z,5.20
2022-11-20T16:11:45.231Z,5.63
2022-11-20T16:14:26.033Z,6.23
2022-11-20T16:16:47.439Z,7.67
2022-11-20T16:19:11.654Z,11.10
2022-11-20T16:21:32.778Z,9.67
2022-11-20T16:23:53.763Z,14.83
2022-11-20T16:26:16.783Z,12.20
2022-11-20T16:28:37.824Z,12.37
2022-11-20T16:31:09.322Z,11.57
2022-11-20T16:33:30.595Z,10.27
2022-11-20T16:35:51.905Z,9.73
2022-11-20T16:38:13.065Z,9.40
2022-11-20T16:40:34.492Z,10.40
2022-11-20T16:42:55.684Z,9.77
2022-11-20T16:45:21.453Z,9.27
2022-11-20T16:47:47.457Z,8.70
2022-11-20T16:50:09.001Z,8.43
2022-11-20T16:52:31.014Z,8.43
2022-11-20T16:54:52.219Z,6.57
2022-11-20T16:57:13.487Z,5.77
2022-11-20T16:59:34.707Z,4.70
2022-11-20T17:01:56.203Z,5.30
2022-11-20T17:04:18.819Z,4.27
2022-11-20T17:06:44.113Z,3.20
2022-11-20T17:09:05.580Z,3.33
2022-11-20T17:11:27.206Z,3.13
2022-11-20T17:13:49.034Z,3.00
2022-11-20T17:16:10.964Z,3.37
2022-11-20T17:18:32.308Z,4.17
2022-11-20T17:20:55.069Z,5.20
2022-11-20T17:23:16.350Z,4.90
2022-11-20T17:25:37.521Z,4.97
2022-11-20T17:27:59.203Z,13.40
2022-11-20T17:30:20.554Z,11.87
2022-11-20T17:32:45.699Z,16.13
2022-11-20T17:35:07.038Z,13.43
2022-11-20T17:37:29.795Z,8.00
2022-11-20T17:39:51.204Z,8.17
2022-11-20T17:42:27.770Z,9.70
2022-11-20T17:44:48.926Z,9.30
2022-11-20T17:47:10.359Z,8.80
2022-11-20T17:49:31.695Z,7.73
2022-11-20T17:51:52.986Z,6.53
2022-11-20T17:54:15.545Z,6.30
2022-11-20T17:56:54.570Z,6.30
2022-11-20T17:59:15.680Z,4.87
2022-11-20T18:01:37.170Z,5.70
2022-11-20T18:03:58.500Z,5.27
2022-11-20T18:06:20.855Z,5.90
2022-11-20T18:08:42.524Z,5.23
2022-11-20T18:11:11.594Z,5.37
2022-11-20T18:13:52.778Z,5.83
2022-11-20T18:16:13.987Z,11.50
2022-11-20T18:18:35.209Z,13.17
2022-11-20T18:20:56.523Z,13.43
2022-11-20T18:23:17.818Z,14.70
2022-11-20T18:25:39.833Z,19.27
2022-11-20T18:28:02.516Z,11.43
2022-11-20T18:30:23.842Z,14.70
2022-11-20T18:32:45.284Z,10.80
2022-11-20T18:35:06.950Z,11.17
2022-11-20T18:37:28.162Z,55.37
2022-11-20T18:39:50.330Z,17.77
2022-11-20T18:42:30.121Z,70.57
2022-11-20T18:44:53.729Z,70.87
2022-11-20T18:47:15.834Z,17.70
2022-11-20T18:49:37.161Z,30.63
2022-11-20T18:51:58.482Z,22.13
2022-11-20T18:54:19.869Z,14.10
2022-11-20T18:56:41.343Z,14.83
2022-11-20T18:59:02.932Z,8.93
2022-11-20T19:01:25.351Z,11.97
2022-11-20T19:03:46.906Z,14.37
2022-11-20T19:06:08.113Z,5.80
2022-11-20T19:08:29.599Z,3.80
2022-11-20T19:10:50.541Z,3.73
2022-11-20T19:13:11.658Z,4.13
2022-11-20T19:15:33.899Z,6.30
2022-11-20T19:17:57.629Z,5.00
2022-11-20T19:20:19.058Z,5.37
2022-11-20T19:22:40.162Z,5.87
2022-11-20T19:25:01.370Z,3.27
2022-11-20T19:27:22.836Z,2.80
2022-11-20T19:29:44.295Z,2.63
2022-11-20T19:32:05.650Z,2.97
2022-11-20T19:34:28.498Z,3.57
2022-11-20T19:36:49.956Z,3.03
2022-11-20T19:39:11.524Z,3.20
2022-11-20T19:41:33.611Z,3.00
2022-11-20T19:43:54.485Z,5.50
2022-11-20T19:46:15.911Z,4.10
2022-11-20T19:48:37.965Z,5.80
2022-11-20T19:51:00.625Z,3.90
2022-11-20T19:53:21.869Z,3.50
2022-11-20T19:55:43.762Z,5.80
2022-11-20T19:58:05.211Z,3.40
2022-11-20T20:00:31.199Z,4.67
2022-11-20T20:02:53.783Z,3.33
2022-11-20T20:05:14.771Z,3.73
2022-11-20T20:07:40.032Z,2.87
2022-11-20T20:10:01.301Z,4.00
2022-11-20T20:12:22.419Z,2.87
2022-11-20T20:14:43.663Z,3.00
2022-11-20T20:17:05.051Z,3.03
2022-11-20T20:19:26.865Z,3.17
2022-11-20T20:21:49.681Z,2.70
2022-11-20T20:24:12.751Z,3.30
2022-11-20T20:26:34.354Z,3.67
2022-11-20T20:28:55.374Z,3.70
2022-11-20T20:31:18.107Z,4.40
2022-11-20T20:33:39.572Z,4.03
2022-11-20T20:36:00.533Z,3.50
2022-11-20T20:38:22.294Z,3.90
2022-11-20T20:40:49.549Z,3.97
2022-11-20T20:43:10.820Z,3.90
2022-11-20T20:45:32.018Z,3.17
2022-11-20T20:47:53.290Z,2.80
2022-11-20T20:50:14.751Z,3.47
2022-11-20T20:52:36.417Z,4.33
2022-11-20T20:54:57.602Z,6.30
2022-11-20T20:57:20.186Z,4.70
2022-11-20T20:59:41.403Z,5.30
2022-11-20T21:02:02.780Z,8.70
2022-11-20T21:04:23.894Z,2.43
2022-11-20T21:06:45.099Z,3.10
2022-11-20T21:09:06.346Z,2.70
2022-11-20T21:11:27.653Z,2.13
2022-11-20T21:13:50.578Z,2.70
2022-11-20T21:16:12.102Z,1.90
2022-11-20T21:18:33.725Z,1.70
2022-11-20T21:21:12.414Z,1.93
2022-11-20T21:23:33.942Z,1.90
2022-11-20T21:25:55.058Z,1.60
2022-11-20T21:28:18.345Z,1.80
2022-11-20T21:30:40.900Z,1.40
2022-11-20T21:33:02.109Z,1.70
2022-11-20T21:35:23.189Z,1.83
2022-11-20T21:37:44.478Z,1.60
2022-11-20T21:40:06.201Z,1.80
2022-11-20T21:42:27.804Z,1.67
2022-11-20T21:44:49.017Z,1.50
2022-11-20T21:47:12.954Z,1.67
2022-11-20T21:49:34.217Z,1.80
2022-11-20T21:51:55.747Z,1.70
2022-11-20T21:54:18.535Z,1.80
2022-11-20T21:56:39.838Z,2.13
2022-11-20T21:59:00.789Z,2.27
2022-11-20T22:01:23.950Z,2.00
2022-11-20T22:03:48.267Z,2.53
2022-11-20T22:06:10.197Z,4.50
2022-11-20T22:08:31.752Z,2.37
2022-11-20T22:10:56.736Z,1.43
2022-11-20T22:13:35.610Z,2.07
2022-11-20T22:16:02.110Z,1.77
2022-11-20T22:18:22.999Z,1.93
2022-11-20T22:20:45.517Z,2.13
2022-11-20T22:23:06.749Z,1.90
2022-11-20T22:25:28.038Z,2.10
2022-11-20T22:27:49.386Z,2.20
2022-11-20T22:30:11.086Z,1.80
2022-11-20T22:32:31.951Z,1.87
2022-11-20T22:34:53.316Z,1.60
2022-11-20T22:37:15.959Z,1.37
2022-11-20T22:39:37.805Z,2.00
2022-11-20T22:41:59.064Z,1.53
2022-11-20T22:44:20.417Z,1.40
2022-11-20T22:46:41.562Z,1.67
2022-11-20T22:49:03.386Z,1.60
2022-11-20T22:51:25.265Z,1.77
2022-11-20T22:53:47.978Z,1.60
2022-11-20T22:56:10.063Z,1.60
2022-11-20T22:58:31.520Z,1.70
2022-11-20T23:00:52.982Z,1.50
2022-11-20T23:03:14.016Z,1.50
2022-11-20T23:05:35.356Z,1.50
2022-11-20T23:07:56.738Z,2.17
2022-11-20T23:10:19.414Z,2.07
2022-11-20T23:12:40.908Z,1.70
2022-11-20T23:15:02.084Z,1.77
2022-11-20T23:17:23.470Z,1.50
2022-11-20T23:19:45.033Z,2.30
2022-11-20T23:22:06.235Z,1.30
2022-11-20T23:24:27.951Z,1.60
2022-11-20T23:26:51.133Z,1.30
2022-11-20T23:29:12.841Z,1.07
2022-11-20T23:31:34.665Z,1.47
2022-11-20T23:33:55.739Z,1.30
2022-11-20T23:36:17.006Z,1.53
2022-11-20T23:38:38.388Z,1.63
2022-11-20T23:40:59.556Z,1.73
2022-11-20T23:43:22.814Z,1.73
2022-11-20T23:45:44.117Z,1.40
2022-11-20T23:48:05.336Z,1.37
2022-11-20T23:50:26.400Z,1.70
2022-11-20T23:52:47.897Z,1.50
2022-11-20T23:55:09.210Z,1.47
2022-11-20T23:57:30.781Z,1.50
2022-11-20T23:59:53.173Z,1.70
